Time;durP1;ratioP1;P1;durP2;ratioP2;P2;SDS_P1;SDS_P2;PMS_P1;PMS_P2;Temp;Humidity;BMP_temperature;BMP_pressure;BME280_temperature;BME280_humidity;BME280_pressure;Samples;Min_cycle;Max_cycle;Signal;HPM_P1;HPM_P2
2021/07/18 00:00:37;;;;;;;5.70;2.63;;;17.00;99.90;;;15.64;91.60;102051.00;3559973;39;102165;-39
2021/07/18 00:03:04;;;;;;;6.70;3.10;;;16.90;99.90;;;15.61;91.84;102052.28;3518498;40;102399;-39
2021/07/18 00:05:32;;;;;;;6.32;3.03;;;16.90;99.90;;;15.55;92.12;102053.16;3518186;40;104442;-39
2021/07/18 00:08:06;;;;;;;5.53;3.00;;;16.90;99.90;;;15.52;92.60;102056.34;3518472;39;102477;-39
2021/07/18 00:10:34;;;;;;;7.15;3.00;;;16.80;99.90;;;15.49;92.73;102057.59;3518507;40;102900;-39
2021/07/18 00:13:02;;;;;;;5.28;2.65;;;16.80;99.90;;;15.45;93.06;102056.34;3517992;40;102416;-39
2021/07/18 00:15:30;;;;;;;5.93;2.75;;;16.80;99.90;;;15.44;93.17;102054.66;3518240;39;102135;-39
2021/07/18 00:17:57;;;;;;;5.97;3.08;;;16.80;99.90;;;15.48;93.25;102052.34;3518812;39;102814;-39
2021/07/18 00:20:25;;;;;;;5.60;2.88;;;16.80;99.90;;;15.47;93.52;102050.66;3518270;40;103170;-39
2021/07/18 00:22:52;;;;;;;6.50;2.97;;;16.80;99.90;;;15.51;93.72;102049.16;3518236;40;102416;-38
2021/07/18 00:25:20;;;;;;;5.10;3.17;;;16.80;99.90;;;15.43;93.57;102050.22;3518234;40;103109;-38
2021/07/18 00:27:48;;;;;;;4.90;3.05;;;16.80;99.90;;;15.34;93.77;102046.84;3518903;39;102469;-39
2021/07/18 00:30:15;;;;;;;5.53;3.13;;;16.70;99.90;;;15.30;94.20;102042.84;3518429;40;103205;-38
2021/07/18 00:32:43;;;;;;;5.93;2.72;;;16.70;99.90;;;15.27;94.30;102042.44;3518151;40;103204;-40
2021/07/18 00:35:11;;;;;;;6.35;2.95;;;16.60;99.90;;;15.23;94.51;102048.34;3518352;40;102911;-39
2021/07/18 00:37:38;;;;;;;;;;;16.60;99.90;;;15.20;94.65;102036.94;3518692;40;102494;-39
2021/07/18 00:40:09;;;;;;;6.20;3.15;;;16.50;99.90;;;15.18;94.62;102039.06;3518460;40;103358;-39
2021/07/18 00:42:37;;;;;;;5.38;3.35;;;16.50;99.90;;;15.13;94.80;102036.13;3518135;40;102357;-39
2021/07/18 00:45:08;;;;;;;5.88;3.65;;;16.50;99.90;;;15.15;94.49;102034.00;3517706;40;103584;-38
2021/07/18 00:47:40;;;;;;;9.10;3.95;;;16.50;99.90;;;15.34;96.25;102035.84;3517838;40;102320;-39
2021/07/18 00:50:14;;;;;;;6.72;3.22;;;16.60;99.90;;;15.25;95.88;102039.91;3517638;40;102188;-38
2021/07/18 00:52:43;;;;;;;9.73;4.07;;;16.60;99.90;;;15.23;96.11;102039.28;3518115;40;102668;-39
2021/07/18 00:55:13;;;;;;;8.50;3.85;;;16.60;99.90;;;15.19;96.07;102040.75;3518361;39;102145;-39
2021/07/18 00:57:45;;;;;;;7.88;3.92;;;16.50;99.90;;;15.17;96.02;102034.63;3518546;39;102829;-39
2021/07/18 01:00:16;;;;;;;7.05;3.85;;;16.50;99.90;;;15.10;95.93;102043.72;3517968;40;104507;-39
2021/07/18 01:02:45;;;;;;;9.40;3.78;;;16.50;99.90;;;15.05;95.80;102038.03;3517913;40;102289;-39
2021/07/18 01:05:15;;;;;;;7.88;4.10;;;16.40;99.90;;;15.00;95.90;102043.31;3517825;40;102292;-39
2021/07/18 01:07:43;;;;;;;7.85;3.80;;;16.40;99.90;;;14.99;96.26;102036.13;3518223;39;102464;-39
2021/07/18 01:10:11;;;;;;;7.72;4.00;;;16.30;99.90;;;14.94;96.04;102034.00;3517673;40;102128;-38
2021/07/18 01:12:38;;;;;;;8.52;4.10;;;16.30;99.90;;;14.96;96.00;102040.13;3517954;40;102708;-39
2021/07/18 01:15:13;;;;;;;6.10;3.47;;;16.30;99.90;;;14.93;95.97;102036.97;3517890;39;102387;-39
2021/07/18 01:17:41;;;;;;;6.35;3.92;;;16.30;99.90;;;14.89;95.76;102038.47;3518494;40;103212;-39
2021/07/18 01:20:11;;;;;;;6.53;3.63;;;16.20;99.90;;;14.84;95.78;102039.09;3518659;39;102116;-39
2021/07/18 01:22:41;;;;;;;7.25;3.65;;;16.20;99.90;;;14.82;95.92;102038.47;3517870;40;103055;-39
2021/07/18 01:25:12;;;;;;;6.10;3.67;;;16.20;99.90;;;14.80;96.33;102037.84;3517530;39;102186;-39
2021/07/18 01:27:40;;;;;;;6.57;3.47;;;16.20;99.90;;;14.79;96.37;102042.47;3517922;40;102373;-39
2021/07/18 01:30:11;;;;;;;8.80;3.72;;;16.10;99.90;;;14.80;96.58;102046.91;3518398;40;103165;-39
2021/07/18 01:32:41;;;;;;;8.38;4.00;;;16.20;99.90;;;14.78;96.62;102038.03;3518036;39;102322;-39
2021/07/18 01:35:11;;;;;;;9.13;4.30;;;16.20;99.90;;;14.78;96.49;102043.53;3517752;40;103107;-39
2021/07/18 01:37:40;;;;;;;9.40;4.82;;;16.10;99.90;;;14.78;96.43;102038.03;3660679;22;102811;-41
2021/07/18 01:40:10;;;;;;;7.90;3.90;;;16.10;99.90;;;14.74;96.75;102033.19;3540593;39;103314;-41
2021/07/18 01:42:41;;;;;;;5.90;3.50;;;16.10;99.90;;;14.68;96.37;102037.59;3550750;39;102205;-44
2021/07/18 01:45:09;;;;;;;9.40;4.30;;;16.10;99.90;;;14.66;96.28;102028.72;3559369;39;103220;-41
2021/07/18 01:47:37;;;;;;;8.90;4.18;;;16.00;99.90;;;14.64;96.42;102030.81;3559493;39;102567;-41
2021/07/18 01:50:07;;;;;;;6.03;3.78;;;16.00;99.90;;;14.63;96.46;102032.72;3559869;39;103105;-41
2021/07/18 01:52:34;;;;;;;9.98;3.90;;;16.00;99.90;;;14.59;96.50;102034.19;3559448;39;103435;-42
2021/07/18 01:55:03;;;;;;;7.03;3.97;;;16.00;99.90;;;14.51;96.18;102027.00;3559738;39;102163;-41
2021/07/18 01:57:30;;;;;;;8.10;3.72;;;15.90;99.90;;;14.48;95.96;102027.41;3559735;39;102487;-41
2021/07/18 01:59:58;;;;;;;8.88;4.10;;;15.90;99.90;;;14.48;95.93;102032.91;3559977;39;102332;-41
2021/07/18 02:02:25;;;;;;;7.10;3.72;;;15.90;99.90;;;14.43;95.84;102018.13;3559621;39;103202;-41
2021/07/18 02:04:53;;;;;;;5.80;3.70;;;15.80;99.90;;;14.38;95.70;102032.50;3559238;39;104386;-43
2021/07/18 02:07:20;;;;;;;8.30;3.85;;;15.80;99.90;;;14.28;95.58;102021.06;3559615;39;102295;-41
2021/07/18 02:09:47;;;;;;;6.63;3.85;;;15.70;99.90;;;14.28;95.39;102030.16;3559745;39;103177;-41
2021/07/18 02:12:15;;;;;;;8.55;3.65;;;15.70;99.90;;;14.25;95.31;102033.31;3559319;39;102302;-41
2021/07/18 02:14:42;;;;;;;7.30;3.95;;;15.60;99.90;;;14.21;95.28;102034.78;3559314;39;102675;-41
2021/07/18 02:17:09;;;;;;;9.07;3.80;;;15.60;99.90;;;14.21;95.07;102037.53;3559517;39;104218;-42
2021/07/18 02:19:37;;;;;;;8.00;3.78;;;15.60;99.90;;;14.17;95.03;102028.84;3559487;39;102278;-41
2021/07/18 02:22:05;;;;;;;5.93;3.45;;;15.60;99.90;;;14.14;95.15;102032.00;3559503;39;102438;-41
2021/07/18 02:24:32;;;;;;;8.02;3.90;;;15.50;99.90;;;14.10;95.09;102025.25;3559017;39;105086;-39
2021/07/18 02:27:00;;;;;;;6.65;3.50;;;15.50;99.90;;;14.08;95.30;102030.94;3560022;39;102379;-43
2021/07/18 02:29:27;;;;;;;8.02;3.75;;;15.50;99.90;;;14.06;95.52;102027.56;3559389;39;102275;-39
2021/07/18 02:31:55;;;;;;;6.40;3.67;;;15.40;99.90;;;14.03;95.62;102032.59;3560007;39;103398;-41
2021/07/18 02:34:22;;;;;;;7.13;3.97;;;15.40;99.90;;;14.00;95.76;102016.56;3559369;39;103365;-41
2021/07/18 02:36:50;;;;;;;7.18;4.13;;;15.40;99.90;;;14.02;96.06;102022.69;3559754;39;102430;-41
2021/07/18 02:39:17;;;;;;;8.25;3.53;;;15.40;99.90;;;13.99;96.35;102026.69;3559334;39;104149;-41
2021/07/18 02:41:44;;;;;;;5.15;3.10;;;15.40;99.90;;;13.97;96.44;102025.19;3559535;39;102483;-43
2021/07/18 02:44:14;;;;;;;7.70;3.60;;;15.40;99.90;;;13.94;96.57;102019.06;3559027;39;102321;-41
2021/07/18 02:46:41;;;;;;;6.53;3.22;;;15.30;99.90;;;13.90;96.37;102020.53;3560069;39;102367;-41
2021/07/18 02:49:09;;;;;;;6.53;2.90;;;15.30;99.90;;;13.90;96.56;102014.19;3559853;39;102338;-42
2021/07/18 02:51:36;;;;;;;7.15;3.90;;;15.30;99.90;;;13.86;96.34;102019.25;3558809;39;102448;-41
2021/07/18 02:54:03;;;;;;;6.30;3.47;;;15.20;99.90;;;13.83;96.47;102024.31;3559135;39;104192;-42
2021/07/18 02:56:31;;;;;;;9.05;3.58;;;15.20;99.90;;;13.81;96.49;102021.78;3559484;39;102426;-41
2021/07/18 02:58:58;;;;;;;7.13;3.28;;;15.20;99.90;;;13.79;96.45;102021.13;3559737;39;102270;-41
2021/07/18 03:01:26;;;;;;;5.00;3.05;;;15.20;99.90;;;13.78;96.46;102011.19;3559656;39;102421;-40
2021/07/18 03:03:53;;;;;;;5.82;3.47;;;15.20;99.90;;;13.73;96.38;102019.19;3559360;39;104147;-39
2021/07/18 03:06:20;;;;;;;6.85;3.17;;;15.10;99.90;;;13.70;96.31;102019.59;3559202;39;102401;-41
2021/07/18 03:08:48;;;;;;;11.02;3.75;;;15.10;99.90;;;13.67;95.92;102012.66;3559165;39;103136;-44
2021/07/18 03:11:15;;;;;;;6.55;3.13;;;15.10;99.90;;;13.64;95.88;102018.53;3559422;39;102355;-41
2021/07/18 03:13:42;;;;;;;5.82;3.03;;;15.00;99.90;;;13.62;95.71;102018.75;3559201;39;102158;-41
2021/07/18 03:16:10;;;;;;;7.50;3.28;;;15.00;99.90;;;13.60;95.81;102015.34;3559454;39;102405;-40
2021/07/18 03:18:37;;;;;;;6.97;3.42;;;15.00;99.90;;;13.58;95.74;102016.59;3559061;39;102307;-40
2021/07/18 03:21:04;;;;;;;6.97;3.25;;;15.00;99.90;;;13.54;95.90;102015.31;3559373;39;102263;-42
2021/07/18 03:23:32;;;;;;;5.35;3.20;;;14.90;99.90;;;13.50;95.76;102014.88;3558807;39;103198;-41
2021/07/18 03:25:59;;;;;;;6.13;2.97;;;14.90;99.90;;;13.46;95.81;102016.31;3559080;39;102424;-40
2021/07/18 03:28:27;;;;;;;7.00;3.20;;;14.90;99.90;;;13.43;95.62;102016.75;3559165;39;104159;-43
2021/07/18 03:30:54;;;;;;;5.35;2.90;;;14.80;99.90;;;13.41;95.89;102025.16;3559146;39;102305;-40
2021/07/18 03:33:21;;;;;;;7.75;3.50;;;14.80;99.90;;;13.39;95.91;102024.47;3559473;39;102231;-41
2021/07/18 03:35:49;;;;;;;5.13;2.92;;;14.80;99.90;;;13.37;96.02;102023.84;3559623;39;102581;-40
2021/07/18 03:38:16;;;;;;;7.22;3.08;;;14.80;99.90;;;13.35;96.03;102021.31;3560507;39;103043;-41
2021/07/18 03:40:43;;;;;;;7.00;3.40;;;14.80;99.90;;;13.32;95.98;102016.25;3559941;39;102340;-41
2021/07/18 03:43:11;;;;;;;6.07;3.63;;;14.70;99.90;;;13.29;96.19;102018.53;3560137;39;102227;-41
2021/07/18 03:45:38;;;;;;;6.88;3.55;;;14.70;99.90;;;13.29;96.14;102016.66;3559839;39;102291;-41
2021/07/18 03:48:05;;;;;;;6.05;3.30;;;14.70;99.90;;;13.28;96.05;102016.84;3560058;39;102266;-41
2021/07/18 03:50:33;;;;;;;7.53;3.40;;;14.70;99.90;;;13.27;96.12;102018.75;3551031;39;104940;-40
2021/07/18 03:53:00;;;;;;;6.00;3.38;;;14.70;99.90;;;13.27;96.14;102021.47;3560424;39;102240;-41
2021/07/18 03:55:27;;;;;;;7.78;3.20;;;14.70;99.90;;;13.26;95.90;102025.28;3559934;39;102230;-40
2021/07/18 03:57:55;;;;;;;5.50;3.28;;;14.70;99.90;;;13.27;96.05;102029.69;3560097;39;102134;-41
2021/07/18 04:00:22;;;;;;;5.97;2.95;;;14.70;99.90;;;13.27;96.16;102026.09;3559894;39;103250;-42
2021/07/18 04:02:49;;;;;;;4.72;3.10;;;14.60;99.90;;;13.27;96.24;102026.97;3559747;39;102273;-41
2021/07/18 04:05:17;;;;;;;5.38;3.13;;;14.70;99.90;;;13.27;96.37;102024.22;3560122;39;102667;-41
2021/07/18 04:07:44;;;;;;;5.93;3.40;;;14.70;99.90;;;13.29;96.46;102024.88;3559951;39;102123;-41
2021/07/18 04:10:11;;;;;;;4.60;2.90;;;14.70;99.90;;;13.31;96.44;102032.88;3560585;39;102397;-40
2021/07/18 04:12:39;;;;;;;5.57;2.90;;;14.70;99.90;;;13.33;96.36;102022.56;3559997;39;103215;-42
2021/07/18 04:15:08;;;;;;;5.88;3.22;;;14.70;99.90;;;13.35;96.56;102026.78;3559540;39;102813;-40
2021/07/18 04:17:35;;;;;;;5.30;3.00;;;14.70;99.90;;;13.37;96.62;102032.06;3560565;39;102221;-41
2021/07/18 04:20:05;;;;;;;6.22;3.22;;;14.70;99.90;;;13.40;96.72;102026.19;3560482;39;102475;-41
2021/07/18 04:22:32;;;;;;;6.22;3.38;;;14.80;99.90;;;13.44;96.73;102023.91;3559708;39;104167;-41
2021/07/18 04:25:00;;;;;;;5.03;3.05;;;14.80;99.90;;;13.45;96.67;102026.47;3559634;39;102467;-40
2021/07/18 04:27:27;;;;;;;4.25;2.72;;;14.80;99.90;;;13.49;96.77;102024.13;3560060;39;103110;-41
2021/07/18 04:29:54;;;;;;;6.00;2.88;;;14.80;99.90;;;13.54;96.77;102020.81;3559857;39;103236;-40
2021/07/18 04:32:22;;;;;;;6.30;3.65;;;14.80;99.90;;;13.58;96.92;102025.69;3559699;39;102382;-40
2021/07/18 04:34:49;;;;;;;33.22;15.75;;;14.90;99.90;;;13.65;96.93;102022.94;3559698;39;102452;-41
2021/07/18 04:37:17;;;;;;;117.35;54.22;;;14.90;99.90;;;13.72;96.95;102031.22;3560105;39;103102;-41
2021/07/18 04:39:44;;;;;;;456.75;213.25;;;15.00;99.90;;;13.78;97.10;102027.66;3559879;39;102279;-42
2021/07/18 04:42:11;;;;;;;577.95;301.40;;;15.10;99.90;;;13.85;96.99;102033.16;3560172;39;102279;-41
2021/07/18 04:44:38;;;;;;;578.95;303.92;;;15.10;99.90;;;13.93;97.26;102035.75;3559623;39;102622;-41
2021/07/18 04:47:06;;;;;;;524.85;276.42;;;15.20;99.90;;;14.00;97.47;102033.00;3559357;39;103022;-40
2021/07/18 04:49:33;;;;;;;502.92;252.77;;;15.30;99.90;;;14.07;97.27;102042.13;3559984;39;102466;-40
2021/07/18 04:52:00;;;;;;;441.98;213.45;;;15.40;99.90;;;14.15;97.34;102049.31;3559613;39;104194;-43
2021/07/18 04:54:28;;;;;;;388.55;177.82;;;15.40;99.90;;;14.24;97.32;102050.81;3559330;39;102213;-41
2021/07/18 04:56:56;;;;;;;317.10;139.35;;;15.50;99.90;;;14.36;97.23;102045.59;3559752;39;102197;-40
2021/07/18 04:59:23;;;;;;;206.35;96.63;;;15.60;99.90;;;14.49;97.52;102044.75;3559516;39;102268;-41
2021/07/18 05:01:50;;;;;;;119.15;57.88;;;15.70;99.90;;;14.67;97.63;102052.38;3559598;39;103157;-41
2021/07/18 05:04:18;;;;;;;79.32;40.42;;;15.80;99.90;;;14.85;97.69;102057.28;3559680;39;102586;-41
2021/07/18 05:06:45;;;;;;;99.70;48.40;;;16.00;99.90;;;14.97;97.58;102060.22;3559196;39;102297;-42
2021/07/18 05:09:12;;;;;;;75.13;37.05;;;16.10;99.90;;;15.12;97.37;102053.66;3560112;39;102414;-40
2021/07/18 05:11:40;;;;;;;68.57;34.45;;;16.20;99.90;;;15.27;97.28;102059.78;3560059;39;103180;-41
2021/07/18 05:14:07;;;;;;;41.05;22.08;;;16.40;99.90;;;15.41;97.20;102051.50;3559800;39;102244;-41
2021/07/18 05:16:34;;;;;;;31.90;17.52;;;16.50;99.90;;;15.56;96.75;102052.09;3559947;39;102968;-40
2021/07/18 05:19:02;;;;;;;27.35;16.30;;;16.60;99.90;;;15.65;96.77;102053.56;3559849;39;102446;-41
2021/07/18 05:21:29;;;;;;;25.02;12.55;;;16.80;99.90;;;15.85;96.73;102051.78;3559744;39;103227;-41
2021/07/18 05:24:00;;;;;;;16.05;9.32;;;16.90;99.90;;;16.07;97.16;102049.59;3559328;39;102266;-40
2021/07/18 05:26:27;;;;;;;16.88;8.68;;;17.10;99.90;;;16.30;97.03;102045.44;3559785;39;102122;-41
2021/07/18 05:28:55;;;;;;;13.98;7.95;;;17.30;99.90;;;16.51;96.90;102042.34;3559833;39;102349;-41
2021/07/18 05:31:22;;;;;;;12.95;7.45;;;17.50;99.90;;;16.63;96.47;102047.13;3559575;39;103204;-38
2021/07/18 05:33:49;;;;;;;10.13;7.30;;;17.60;99.90;;;16.82;96.31;102048.03;3559823;39;103314;-41
2021/07/18 05:36:17;;;;;;;9.95;6.75;;;17.80;99.90;;;16.91;95.72;102054.09;3559685;39;102579;-43
2021/07/18 05:38:44;;;;;;;11.32;7.32;;;17.90;99.90;;;16.98;95.24;102049.41;3559669;39;102852;-41
2021/07/18 05:41:11;;;;;;;13.48;7.90;;;18.00;99.90;;;17.05;95.03;102052.94;3559701;39;102248;-41
2021/07/18 05:43:38;;;;;;;11.55;7.50;;;18.10;99.90;;;17.10;94.38;102055.00;3559463;39;102425;-41
2021/07/18 05:46:06;;;;;;;13.32;7.75;;;18.10;99.90;;;17.11;93.77;102059.47;3559629;39;103198;-41
2021/07/18 05:48:33;;;;;;;16.38;9.50;;;18.20;99.90;;;17.11;93.16;102060.31;3559970;39;102388;-41
2021/07/18 05:51:00;;;;;;;12.73;7.60;;;18.20;99.90;;;17.10;93.13;102064.13;3559576;39;102318;-40
2021/07/18 05:53:28;;;;;;;18.65;10.07;;;18.20;99.90;;;17.14;92.62;102060.94;3559726;39;102266;-41
2021/07/18 05:55:55;;;;;;;17.25;9.15;;;18.30;99.90;;;17.22;93.06;102067.00;3559244;39;102115;-40
2021/07/18 05:58:23;;;;;;;18.80;10.32;;;18.30;99.90;;;17.20;92.23;102073.81;3559289;39;102371;-41
2021/07/18 06:00:50;;;;;;;21.33;11.30;;;18.30;99.90;;;17.38;92.91;102067.50;3560104;39;103590;-37
2021/07/18 06:03:18;;;;;;;19.83;12.10;;;18.40;99.90;;;17.58;92.96;102070.03;3559463;39;102127;-41
2021/07/18 06:05:45;;;;;;;21.55;12.13;;;18.50;99.90;;;17.72;90.76;102065.19;3559184;39;102297;-40
2021/07/18 06:08:13;;;;;;;22.02;12.60;;;18.70;99.90;;;17.86;89.27;102068.63;3559185;39;102685;-41
2021/07/18 06:10:40;;;;;;;21.35;12.75;;;18.80;99.90;;;18.06;89.30;102070.34;3559198;39;102360;-41
2021/07/18 06:13:08;;;;;;;23.45;11.88;;;19.00;99.90;;;18.15;86.88;102060.66;3559383;39;102332;-41
2021/07/18 06:15:35;;;;;;;17.60;10.88;;;19.10;99.90;;;18.34;86.47;102061.44;3559538;39;103142;-41
2021/07/18 06:18:03;;;;;;;15.98;10.02;;;19.20;99.90;;;18.58;86.71;102060.69;3559094;39;102573;-43
2021/07/18 06:20:30;;;;;;;19.65;10.82;;;19.40;99.90;;;18.69;85.00;102062.59;3559635;39;102175;-41
2021/07/18 06:22:57;;;;;;;18.48;10.40;;;19.60;99.90;;;18.79;83.70;102062.03;3559357;39;102414;-41
2021/07/18 06:25:25;;;;;;;17.17;10.48;;;19.70;99.90;;;18.97;84.42;102055.56;3559427;39;102130;-42
2021/07/18 06:27:52;;;;;;;17.48;9.82;;;19.80;99.90;;;18.97;82.66;102063.84;3559489;39;102195;-41
2021/07/18 06:30:20;;;;;;;14.20;9.20;;;19.90;99.90;;;19.06;82.99;102067.13;3559458;39;103074;-41
2021/07/18 06:32:48;;;;;;;15.90;8.85;;;20.00;99.90;;;19.19;82.82;102064.13;3559190;39;103337;-41
2021/07/18 06:35:15;;;;;;;14.93;8.88;;;20.10;99.90;;;19.23;80.41;102065.34;3558985;39;102284;-43
2021/07/18 06:37:43;;;;;;;17.52;9.05;;;20.10;99.90;;;19.35;80.61;102073.63;3559045;39;103929;-41
2021/07/18 06:40:11;;;;;;;11.95;7.45;;;20.20;99.90;;;19.49;79.28;102081.69;3559618;39;102309;-38
2021/07/18 06:42:39;;;;;;;14.43;7.75;;;20.30;99.90;;;19.57;77.96;102074.94;3559393;39;102160;-41
2021/07/18 06:45:09;;;;;;;12.45;7.75;;;20.40;99.90;;;19.53;78.02;102078.19;3559799;39;103123;-41
2021/07/18 06:47:37;;;;;;;13.60;8.30;;;20.50;99.90;;;19.46;77.19;102076.63;3559486;39;103502;-41
2021/07/18 06:50:05;;;;;;;12.82;7.63;;;20.40;99.90;;;19.52;79.46;102079.28;3558814;39;103197;-41
2021/07/18 06:52:32;;;;;;;11.75;6.65;;;20.50;99.90;;;19.55;78.12;102081.56;3559265;39;103501;-41
2021/07/18 06:55:00;;;;;;;13.55;6.30;;;20.50;99.90;;;19.68;78.32;102080.44;3558831;39;103235;-39
2021/07/18 06:57:27;;;;;;;13.43;7.03;;;20.60;99.90;;;19.67;76.63;102080.69;3559382;39;102509;-37
2021/07/18 06:59:55;;;;;;;13.60;6.45;;;20.60;99.90;;;19.96;77.52;102078.00;3559362;39;102175;-41
2021/07/18 07:02:22;;;;;;;8.43;5.53;;;20.80;99.90;;;20.21;77.79;102076.81;3559575;39;102152;-41
2021/07/18 07:04:50;;;;;;;9.13;5.35;;;20.90;99.90;;;20.33;73.86;102074.84;3558979;39;103219;-41
2021/07/18 07:07:17;;;;;;;10.85;5.07;;;21.10;99.90;;;20.50;75.32;102069.34;3558706;39;102414;-41
2021/07/18 07:09:45;;;;;;;9.25;5.50;;;21.30;99.90;;;20.73;75.60;102064.75;3559730;39;104480;-41
2021/07/18 07:12:12;;;;;;;10.40;4.50;;;21.40;99.90;;;20.84;72.68;102071.34;3559490;39;102111;-41
2021/07/18 07:14:40;;;;;;;;;;;21.50;99.90;;;20.98;70.18;102069.06;3559918;39;102319;-41
2021/07/18 07:17:07;;;;;;;8.43;4.10;;;21.70;99.90;;;21.01;71.58;102064.94;3559199;39;102601;-39
2021/07/18 07:19:34;;;;;;;7.72;4.32;;;21.70;99.90;;;21.18;72.31;102079.63;3559178;39;102232;-41
2021/07/18 07:22:02;;;;;;;9.18;4.82;;;21.90;99.90;;;21.31;70.30;102072.88;3549993;39;103542;-42
2021/07/18 07:24:30;;;;;;;8.45;4.30;;;22.00;99.90;;;21.52;70.95;102073.19;3558666;39;102377;-41
2021/07/18 07:26:58;;;;;;;7.35;4.18;;;22.10;99.90;;;21.58;67.95;102076.84;3559138;39;102395;-43
2021/07/18 07:29:25;;;;;;;7.45;3.80;;;22.30;99.90;;;21.36;65.73;102081.28;3558681;39;103421;-41
2021/07/18 07:31:52;;;;;;;8.45;3.90;;;22.20;99.90;;;21.35;68.66;102076.81;3558770;39;102329;-41
2021/07/18 07:34:20;;;;;;;8.40;3.75;;;22.20;99.90;;;21.32;68.33;102088.44;3558748;39;102306;-41
2021/07/18 07:36:47;;;;;;;7.03;3.05;;;22.30;99.90;;;21.34;66.25;102083.47;3681996;22;103831;-39
2021/07/18 07:39:15;;;;;;;5.45;2.85;;;22.20;99.90;;;21.39;64.06;102080.75;3548859;39;102253;-39
2021/07/18 07:41:42;;;;;;;10.40;3.05;;;22.30;99.90;;;21.41;68.41;102073.03;3549470;39;102436;-41
2021/07/18 07:44:10;;;;;;;6.53;2.53;;;22.30;99.90;;;21.62;69.09;102072.47;3549017;39;102243;-39
2021/07/18 07:46:38;;;;;;;5.13;2.53;;;22.40;99.90;;;21.76;68.72;102072.97;3548968;39;102273;-39
2021/07/18 07:49:06;;;;;;;5.28;2.50;;;22.50;99.90;;;21.80;66.56;102071.34;3548887;39;102296;-40
2021/07/18 07:51:33;;;;;;;4.88;2.25;;;22.50;99.90;;;21.83;62.28;102074.44;3549250;39;102368;-41
2021/07/18 07:54:01;;;;;;;;;;;22.60;99.90;;;21.83;61.87;102068.06;3549202;39;102209;-40
2021/07/18 07:56:28;;;;;;;3.80;1.77;;;22.60;99.90;;;21.87;64.85;102072.00;3548914;39;102915;-39
2021/07/18 07:58:56;;;;;;;3.03;1.70;;;22.70;99.90;;;22.06;63.72;102066.09;3548981;39;103381;-36
2021/07/18 08:01:27;;;;;;;4.55;2.45;;;22.80;99.90;;;22.21;64.76;102065.44;3548644;39;102397;-38
2021/07/18 08:03:54;;;;;;;4.88;2.22;;;22.90;99.90;;;22.24;64.39;102067.69;3549298;39;102229;-37
2021/07/18 08:06:22;;;;;;;5.50;1.92;;;23.00;99.90;;;22.25;61.23;102070.19;3548764;39;102518;-39
2021/07/18 08:08:49;;;;;;;3.50;1.63;;;23.00;99.90;;;22.17;59.33;102067.88;3549118;39;102359;-39
2021/07/18 08:11:17;;;;;;;2.70;1.80;;;23.00;99.90;;;22.29;62.38;102062.16;3548991;39;102421;-39
2021/07/18 08:13:45;;;;;;;;;;;23.10;99.90;;;22.47;62.73;102058.19;3549241;39;103385;-39
2021/07/18 08:16:12;;;;;;;4.75;2.30;;;23.20;99.90;;;22.69;61.68;102060.94;3548488;39;102498;-41
2021/07/18 08:18:40;;;;;;;5.40;2.58;;;23.30;99.90;;;22.73;59.75;102065.97;3548801;39;102123;-39
2021/07/18 08:21:07;;;;;;;7.15;3.55;;;23.40;99.90;;;22.70;60.05;102061.75;3549743;39;103407;-39
2021/07/18 08:23:35;;;;;;;10.20;3.33;;;23.40;99.90;;;22.67;58.82;102059.50;3550037;39;102764;-39
2021/07/18 08:26:03;;;;;;;11.13;3.58;;;23.50;99.90;;;22.58;59.76;102056.34;3550374;39;102313;-39
2021/07/18 08:28:31;;;;;;;7.40;3.58;;;23.40;99.90;;;22.62;60.07;102057.50;3550139;39;102204;-40
2021/07/18 08:30:58;;;;;;;9.10;3.25;;;23.40;99.90;;;22.53;60.62;102056.31;3550310;39;102314;-39
2021/07/18 08:33:26;;;;;;;7.25;3.10;;;23.40;99.90;;;22.60;60.63;102058.88;3550100;39;103429;-39
2021/07/18 08:35:53;;;;;;;;;;;23.40;99.90;;;22.73;60.48;102057.59;3550760;39;102421;-38
2021/07/18 08:38:20;;;;;;;7.10;3.60;;;23.50;99.90;;;22.69;62.58;102055.38;3550142;39;104052;-39
2021/07/18 08:40:50;;;;;;;7.28;3.65;;;23.50;99.90;;;22.89;62.57;102050.22;3550396;39;102733;-41
2021/07/18 08:43:25;;;;;;;9.82;3.83;;;23.70;99.90;;;22.98;60.80;102049.47;3550135;39;104314;-39
2021/07/18 08:45:52;;;;;;;8.98;3.85;;;23.70;99.90;;;23.18;59.39;102049.88;3550069;39;102183;-39
2021/07/18 08:48:20;;;;;;;;;;;23.80;99.90;;;23.40;61.47;102050.59;3550922;39;102282;-38
2021/07/18 08:50:48;;;;;;;7.82;3.20;;;24.00;99.90;;;23.58;60.27;102047.59;3550180;39;102514;-37
2021/07/18 08:53:17;;;;;;;10.32;4.03;;;24.20;99.90;;;23.56;56.13;102047.88;3550068;39;102114;-39
2021/07/18 08:55:46;;;;;;;10.02;3.50;;;;;;;23.77;58.54;102050.75;3549893;39;102369;-39
2021/07/18 08:58:15;;;;;;;9.32;3.63;;;24.20;99.90;;;23.79;59.10;102040.16;3549874;39;103275;-37
2021/07/18 09:00:43;;;;;;;6.28;3.50;;;24.40;99.90;;;23.75;57.00;102047.38;3550089;39;102317;-39
2021/07/18 09:03:17;;;;;;;9.40;3.33;;;24.40;99.90;;;23.83;58.29;102044.06;3550019;39;103591;-39
2021/07/18 09:05:46;;;;;;;6.82;3.35;;;24.50;99.90;;;24.03;57.48;102042.50;3550036;39;102152;-39
2021/07/18 09:08:23;;;;;;;7.57;3.33;;;24.60;99.90;;;23.98;57.93;102044.13;3549785;39;103202;-39
2021/07/18 09:10:51;;;;;;;7.97;3.35;;;;;;;24.18;59.33;102044.47;3549912;39;102601;-39
2021/07/18 09:13:20;;;;;;;9.23;3.70;;;;;;;24.19;56.26;102041.44;3549964;39;103190;-39
2021/07/18 09:15:55;;;;;;;7.18;3.00;;;;;;;24.23;55.10;102044.47;3549583;39;103285;-38
2021/07/18 09:18:25;;;;;;;8.52;3.10;;;;;;;24.35;56.90;102039.50;3550374;39;102223;-39
2021/07/18 09:20:57;;;;;;;7.93;4.13;;;;;;;24.48;56.61;102035.31;3549697;39;102271;-39
2021/07/18 09:23:30;;;;;;;8.45;3.10;;;;;;;24.61;54.47;102033.94;3549651;39;102397;-39
2021/07/18 09:26:25;;;;;;;8.02;3.20;;;;;;;24.60;55.51;102032.25;3549962;39;102430;-39
2021/07/18 09:28:53;;;;;;;5.10;2.65;;;;;;;24.67;53.25;102029.19;3548994;39;103376;-36
2021/07/18 09:31:39;;;;;;;5.63;2.67;;;;;;;24.69;51.72;102027.78;3549403;39;103277;-36
2021/07/18 09:34:14;;;;;;;6.07;2.67;;;;;;;24.53;52.14;102031.69;3549472;39;102403;-35
2021/07/18 09:36:42;;;;;;;4.15;2.20;;;;;;;24.82;55.32;102028.38;3549824;39;102921;-39
2021/07/18 09:39:13;;;;;;;5.32;2.63;;;;;;;25.08;54.99;102020.78;3549465;39;103603;-39
2021/07/18 09:41:45;;;;;;;6.63;2.70;;;;;;;25.31;54.90;102029.66;3549768;39;102506;-39
2021/07/18 09:44:13;;;;;;;4.55;2.45;;;;;;;25.41;53.58;102029.63;3549546;39;102306;-39
2021/07/18 09:46:41;;;;;;;3.83;2.05;;;;;;;25.57;54.62;102029.59;3549777;39;102509;-40
2021/07/18 09:49:32;;;;;;;7.32;4.32;;;;;;;25.51;52.13;102027.97;3550015;39;102345;-39
2021/07/18 09:52:15;;;;;;;;;;;;;;;25.55;51.58;102023.47;3550470;39;103466;-39
2021/07/18 09:54:43;;;;;;;3.80;1.90;;;;;;;25.53;53.76;102028.50;3550232;39;103234;-39
2021/07/18 09:57:26;;;;;;;4.47;1.90;;;;;;;25.61;51.05;102033.50;3550059;39;102159;-36
2021/07/18 09:59:54;;;;;;;3.70;1.88;;;;;;;25.71;52.24;102024.22;3549651;39;103237;-39
2021/07/18 10:02:30;;;;;;;3.25;1.70;;;;;;;25.73;51.76;102026.72;3550089;39;102403;-39
2021/07/18 10:05:00;;;;;;;3.08;1.58;;;;;;;25.88;52.18;102021.06;3549540;39;103370;-37
2021/07/18 10:07:33;;;;;;;3.67;1.90;;;;;;;25.93;51.27;102011.81;3549719;39;103201;-41
2021/07/18 10:10:03;;;;;;;5.82;1.88;;;;;;;25.88;50.87;102004.28;3550064;39;102489;-39
2021/07/18 10:12:32;;;;;;;2.42;1.70;;;;;;;25.74;53.37;102015.28;3549739;39;102441;-39
2021/07/18 10:15:01;;;;;;;3.55;1.85;;;;;;;25.97;55.27;102007.31;3549314;39;102324;-39
2021/07/18 10:17:30;;;;;;;3.88;2.00;;;;;;;25.89;55.71;102003.16;3549944;39;102662;-39